首页
METAR-TAF:

METAR-TAF

机场 :

內排國際機場

河內, 越南

纬度: 21-01N, 经度: 105-48E, 海拔: 6米

当前天气观测

该预报发布于39分钟前的23:30 UTC
风速6节,风向
温度 24°C
湿度 100%
气压 1014 hPa
能見度: 3800
少量云层高于1000英尺
多云层高于3000英尺
轻雾

METAR: VVNB 172330Z 08006KT 3800 BR FEW010 BKN030 24/24 Q1014 NOSIG

时间: 07:09 (00:09 UTC)

预报

该预报发布于1小时和9分钟前的23:00 UTC
预报有效从18日的 00点(UTC)到 18日的 24点(UTC)
风速6节,风向东转东南
能見度: 4000
少量云层高于1500英尺
多云层高于4500英尺
轻雾
成为
从 18日的 01点(UTC)到 18日的 03点(UTC)
能見度: 6000
几率 40% :
短暂存在
从 18日的 04点(UTC)到 18日的 08点(UTC)
能見度: 4000
散云层高于1000英尺
少量云层高于2700英尺, 积雨云.
多云层高于4000英尺
雷暴, 雨
成为
从 18日的 12点(UTC)到 18日的 13点(UTC)
风速12节,风向东北
短暂存在
从 18日的 14点(UTC)到 18日的 18点(UTC)
风速15节,风向北转东北,有时为28节阵风
能見度: 3000
散云层高于1000英尺
少量云层高于2700英尺, 积雨云.
多云层高于3000英尺
雷暴, 大雨

TAF: VVNB 172300Z 1800/1824 11006KT 4000 BR FEW015 BKN045 BECMG 1801/1803 6000 NSW PROB40 TEMPO 1804/1808 4000 TSRA SCT010 FEW027CB BKN040 BECMG 1812/1813 04012KT TEMPO 1814/1818 02015G28KT 3000 +TSRA SCT010 FEW027CB BKN030

超过4000个机场的气象观测和天气预报(METAR&TAF报告)。

可查询的气象台以黄色和红色小点在地图上表示。

将鼠标移到小点上方,可查看气象台名称。

然后点击查看天气观测和预报。

如需切换地图:点击带黑十字的绿色按钮放大地图;点击带横线的绿色按钮缩小地图;或者点击绿色箭头查看邻近地区的地图。


METAR-TAF: